This is the latest recevied weather packets stored in our database for station/object EA2KR-10. If no packets are shown the sender has not sent any weather packets the latest 10 day(s).
| Time | Temp. | Humidity | Pressure | Rain* | Wind** | Luminosity | Snow |
|---|---|---|---|---|---|---|---|
| 1777659338 | 21.67° C | 47% | 1029.9 hPa | - | - | - | - |
| 1777657538 | 22.22° C | 46% | 1029.3 hPa | - | - | - | - |
| 1777655737 | 23.33° C | 42% | 1029.4 hPa | - | - | - | - |
| 1777653937 | 22.78° C | 45% | 1029.6 hPa | - | - | - | - |
| 1777652137 | 26.11° C | 40% | 1029.5 hPa | - | - | - | - |
| 1777650337 | 24.44° C | 43% | 1029.5 hPa | - | - | - | - |
| 1777648537 | 28.33° C | 38% | 1029.5 hPa | - | - | - | - |
| 1777646737 | 26.11° C | 40% | 1029.7 hPa | - | - | - | - |
| 1777644937 | 26.67° C | 44% | 1030 hPa | - | - | - | - |
| 1777643137 | 25.56° C | 45% | 1030.2 hPa | - | - | - | - |
| 1777641336 | 23.33° C | 47% | 1030.4 hPa | - | - | - | - |
| 1777639536 | 23.89° C | 46% | 1030.3 hPa | - | - | - | - |
| 1777637736 | 25.56° C | 45% | 1030.4 hPa | - | - | - | - |
| 1777635936 | 21.67° C | 52% | 1030.7 hPa | - | - | - | - |
| 1777634137 | 21.11° C | 51% | 1030.8 hPa | - | - | - | - |
| 1777632337 | 22.78° C | 51% | 1031 hPa | - | - | - | - |
| 1777630537 | 23.33° C | 50% | 1031.2 hPa | - | - | - | - |
| 1777628737 | 22.78° C | 51% | 1031.2 hPa | - | - | - | - |
| 1777626937 | 25° C | 49% | 1031 hPa | - | - | - | - |
| 1777625137 | 25° C | 52% | 1030.9 hPa | - | - | - | - |
| 1777623337 | 22.22° C | 56% | 1030.8 hPa | - | - | - | - |
| 1777621537 | 18.33° C | 63% | 1030.9 hPa | - | - | - | - |
| 1777619737 | 17.22° C | 63% | 1030.8 hPa | - | - | - | - |
| 1777617937 | 17.22° C | 62% | 1030.5 hPa | - | - | - | - |
| 1777616137 | 17.22° C | 61% | 1030.4 hPa | - | - | - | - |
* Rain since midnight (hover to see other rain measurements)
** Current wind speed in m/s (hover to see current wind gust speed)